createdAt,value
2022-08-17T00:00:43.078Z,48.42
2022-08-17T00:03:39.153Z,48.30
2022-08-17T00:06:29.416Z,48.50
2022-08-17T00:09:18.944Z,48.42
2022-08-17T00:12:42.971Z,48.42
2022-08-17T00:15:14.034Z,48.65
2022-08-17T00:18:00.252Z,48.54
2022-08-17T00:20:46.500Z,48.48
2022-08-17T00:23:33.116Z,48.62
2022-08-17T00:26:34.733Z,48.57
2022-08-17T00:29:36.506Z,48.76
2022-08-17T00:33:12.248Z,48.61
2022-08-17T00:35:33.510Z,48.55
2022-08-17T00:38:19.668Z,48.52
2022-08-17T00:41:09.447Z,48.71
2022-08-17T00:44:01.124Z,48.84
2022-08-17T00:46:48.059Z,48.82
2022-08-17T00:49:34.198Z,48.93
2022-08-17T00:52:23.862Z,48.94
2022-08-17T00:55:10.349Z,48.95
2022-08-17T00:57:59.249Z,48.80
2022-08-17T01:00:46.311Z,49.00
2022-08-17T01:03:32.593Z,48.79
2022-08-17T01:06:19.369Z,48.96
2022-08-17T01:09:05.559Z,48.86
2022-08-17T01:11:52.459Z,49.05
2022-08-17T01:14:39.459Z,48.98
2022-08-17T01:17:27.346Z,49.16
2022-08-17T01:20:13.180Z,49.14
2022-08-17T01:23:00.321Z,49.13
2022-08-17T01:25:48.734Z,49.52
2022-08-17T01:28:54.829Z,48.98
2022-08-17T01:31:48.697Z,49.08
2022-08-17T01:34:43.402Z,49.01
2022-08-17T01:37:36.546Z,48.98
2022-08-17T01:40:40.726Z,49.14
2022-08-17T01:43:27.465Z,49.89
2022-08-17T01:46:17.102Z,49.24
2022-08-17T01:49:07.042Z,49.37
2022-08-17T01:51:53.131Z,49.32
2022-08-17T01:54:40.575Z,49.20
2022-08-17T01:57:26.484Z,49.37
2022-08-17T02:00:13.752Z,49.58
2022-08-17T02:02:59.520Z,49.18
2022-08-17T02:05:45.893Z,49.52
2022-08-17T02:08:39.180Z,49.59
2022-08-17T02:11:42.354Z,49.62
2022-08-17T02:14:28.413Z,49.73
2022-08-17T02:17:14.581Z,49.83
2022-08-17T02:20:00.731Z,49.71
2022-08-17T02:22:47.909Z,49.90
2022-08-17T02:25:34.140Z,50.06
2022-08-17T02:28:20.910Z,49.87
2022-08-17T02:31:10.006Z,49.95
2022-08-17T02:33:56.614Z,49.81
2022-08-17T02:36:54.879Z,49.80
2022-08-17T02:39:41.092Z,49.95
2022-08-17T02:42:34.016Z,49.85
2022-08-17T02:45:22.938Z,49.96
2022-08-17T02:48:08.799Z,50.03
2022-08-17T02:50:54.772Z,50.11
2022-08-17T02:53:40.816Z,49.92
2022-08-17T02:56:26.682Z,50.18
2022-08-17T02:59:12.592Z,50.06
2022-08-17T03:01:58.418Z,50.18
2022-08-17T03:04:44.384Z,50.23
2022-08-17T03:07:31.114Z,50.20
2022-08-17T03:10:17.835Z,50.08
2022-08-17T03:13:04.379Z,50.18
2022-08-17T03:15:50.712Z,50.12
2022-08-17T03:18:36.865Z,50.10
2022-08-17T03:21:23.102Z,50.08
2022-08-17T03:24:09.335Z,50.22
2022-08-17T03:26:55.157Z,50.17
2022-08-17T03:29:41.537Z,50.07
2022-08-17T03:32:27.359Z,50.21
2022-08-17T03:35:16.516Z,50.08
2022-08-17T03:38:05.578Z,50.12
2022-08-17T03:40:59.102Z,50.04
2022-08-17T03:43:45.870Z,50.29
2022-08-17T03:46:50.347Z,50.25
2022-08-17T03:50:02.130Z,50.26
2022-08-17T03:53:09.126Z,50.32
2022-08-17T03:56:14.582Z,50.24
2022-08-17T03:59:00.697Z,50.29
2022-08-17T04:01:49.619Z,50.34
2022-08-17T04:04:41.298Z,49.94
2022-08-17T04:07:30.667Z,50.02
2022-08-17T04:10:16.678Z,50.28
2022-08-17T04:13:04.470Z,50.35
2022-08-17T04:15:53.008Z,50.45
2022-08-17T04:18:38.883Z,50.26
2022-08-17T04:21:24.755Z,50.39
2022-08-17T04:24:10.633Z,50.28
2022-08-17T04:26:56.491Z,50.48
2022-08-17T04:29:54.877Z,50.76
2022-08-17T04:33:05.527Z,50.67
2022-08-17T04:36:08.472Z,50.63
2022-08-17T04:38:58.365Z,50.70
2022-08-17T04:42:03.383Z,50.80
2022-08-17T04:44:49.317Z,50.69
2022-08-17T04:47:35.816Z,50.69
2022-08-17T04:50:21.409Z,50.78
2022-08-17T04:53:07.503Z,50.58
2022-08-17T04:55:53.945Z,50.86
2022-08-17T04:58:39.944Z,50.76
2022-08-17T05:01:28.948Z,50.86
2022-08-17T05:04:33.824Z,50.80
2022-08-17T05:07:24.012Z,50.77
2022-08-17T05:10:11.633Z,50.92
2022-08-17T05:13:21.549Z,51.23
2022-08-17T05:16:09.208Z,51.03
2022-08-17T05:18:55.505Z,51.01
2022-08-17T05:21:41.298Z,50.84
2022-08-17T05:24:38.977Z,50.86
2022-08-17T05:27:29.359Z,51.03
2022-08-17T05:30:21.922Z,51.10
2022-08-17T05:33:12.259Z,51.01
2022-08-17T05:35:59.810Z,51.08
2022-08-17T05:38:45.664Z,51.09
2022-08-17T05:41:31.379Z,51.11
2022-08-17T05:44:17.284Z,51.03
2022-08-17T05:47:05.288Z,51.00
2022-08-17T05:49:57.311Z,51.53
2022-08-17T05:53:04.316Z,50.94
2022-08-17T05:56:29.822Z,50.93
2022-08-17T05:59:42.593Z,51.29
2022-08-17T06:02:47.959Z,51.11
2022-08-17T06:05:53.211Z,50.78
2022-08-17T06:08:42.436Z,50.89
2022-08-17T06:11:44.291Z,50.84
2022-08-17T06:14:53.823Z,51.08
2022-08-17T06:17:40.367Z,50.64
2022-08-17T06:20:32.383Z,50.64
2022-08-17T06:23:28.148Z,50.77
2022-08-17T06:26:30.508Z,50.81
2022-08-17T06:29:39.908Z,50.72
2022-08-17T06:32:25.912Z,50.60
2022-08-17T06:35:15.389Z,50.50
2022-08-17T06:38:37.461Z,50.44
2022-08-17T06:41:38.219Z,50.38
2022-08-17T06:44:57.576Z,50.68
2022-08-17T06:47:53.511Z,50.31
2022-08-17T06:50:44.593Z,50.31
2022-08-17T06:53:41.083Z,50.25
2022-08-17T06:56:53.206Z,50.22
2022-08-17T07:00:07.301Z,50.12
2022-08-17T07:03:03.065Z,50.00
2022-08-17T07:05:50.993Z,50.31
2022-08-17T07:08:58.215Z,49.98
2022-08-17T07:11:59.438Z,50.03
2022-08-17T07:14:52.062Z,49.88
2022-08-17T07:17:47.803Z,49.65
2022-08-17T07:20:35.270Z,49.68
2022-08-17T07:23:40.213Z,49.66
2022-08-17T07:26:25.989Z,49.71
2022-08-17T07:29:16.915Z,49.56
2022-08-17T07:32:04.424Z,49.61
2022-08-17T07:35:18.466Z,49.72
2022-08-17T07:38:26.781Z,49.76
2022-08-17T07:41:14.304Z,49.41
2022-08-17T07:44:00.343Z,49.65
2022-08-17T07:47:12.326Z,49.70
2022-08-17T07:49:58.327Z,49.51
2022-08-17T07:52:50.770Z,49.57
2022-08-17T07:55:45.339Z,49.56
2022-08-17T07:58:31.166Z,49.46
2022-08-17T08:01:18.400Z,49.46
2022-08-17T08:07:59.374Z,49.34
2022-08-17T08:11:02.655Z,49.34
2022-08-17T08:13:49.968Z,49.26
2022-08-17T08:16:36.807Z,49.24
2022-08-17T08:19:25.127Z,49.09
2022-08-17T08:22:26.286Z,49.16
2022-08-17T08:25:19.545Z,48.98
2022-08-17T08:28:34.198Z,48.66
2022-08-17T08:31:29.448Z,48.80
2022-08-17T08:34:53.395Z,48.73
2022-08-17T08:37:50.118Z,48.52
2022-08-17T08:40:45.148Z,48.78
2022-08-17T08:43:36.804Z,48.66
2022-08-17T08:46:38.111Z,48.68
2022-08-17T08:50:05.170Z,48.77
2022-08-17T08:53:13.062Z,48.74
2022-08-17T08:56:07.401Z,48.50
2022-08-17T08:59:34.806Z,48.32
2022-08-17T09:02:51.099Z,48.13
2022-08-17T09:06:04.650Z,47.94
2022-08-17T09:09:37.264Z,47.64
2022-08-17T09:12:45.436Z,47.36
2022-08-17T09:15:47.794Z,46.98
2022-08-17T09:19:02.914Z,46.77
2022-08-17T09:21:49.256Z,46.70
2022-08-17T09:24:41.815Z,46.69
2022-08-17T09:27:50.325Z,46.53
2022-08-17T09:30:46.089Z,45.80
2022-08-17T09:33:35.586Z,45.73
2022-08-17T09:36:30.364Z,45.59
2022-08-17T09:39:20.007Z,45.52
2022-08-17T09:42:31.067Z,45.03
2022-08-17T09:45:40.985Z,53.46
2022-08-17T09:49:07.505Z,53.20
2022-08-17T09:52:07.920Z,50.29
2022-08-17T09:54:56.002Z,50.93
2022-08-17T09:58:30.947Z,51.64
2022-08-17T10:01:36.230Z,52.50
2022-08-17T10:04:29.562Z,51.95
2022-08-17T10:07:23.155Z,52.11
2022-08-17T10:10:15.053Z,51.86
2022-08-17T10:13:28.629Z,51.95
2022-08-17T10:16:20.619Z,51.58
2022-08-17T10:19:50.822Z,51.35
2022-08-17T10:23:10.173Z,51.43
2022-08-17T10:26:15.620Z,50.99
2022-08-17T10:29:24.713Z,51.35
2022-08-17T10:32:24.289Z,51.08
2022-08-17T10:35:34.166Z,50.94
2022-08-17T10:38:50.439Z,50.89
2022-08-17T10:41:45.227Z,50.83
2022-08-17T10:44:52.268Z,50.49
2022-08-17T10:48:05.173Z,50.46
2022-08-17T10:51:00.102Z,50.20
2022-08-17T10:53:46.467Z,50.25
2022-08-17T10:56:51.052Z,50.43
2022-08-17T10:59:37.147Z,50.21
2022-08-17T11:02:27.543Z,50.32
2022-08-17T11:05:42.958Z,50.25
2022-08-17T11:08:57.563Z,50.25
2022-08-17T11:11:51.076Z,50.26
2022-08-17T11:14:50.615Z,50.04
2022-08-17T11:18:07.506Z,49.83
2022-08-17T11:21:39.324Z,48.67
2022-08-17T11:24:30.658Z,49.49
2022-08-17T11:27:33.620Z,48.83
2022-08-17T11:30:53.026Z,48.74
2022-08-17T11:33:42.420Z,48.35
2022-08-17T11:36:56.550Z,47.95
2022-08-17T11:40:06.086Z,47.70
2022-08-17T11:43:44.430Z,47.61
2022-08-17T11:46:58.319Z,47.42
2022-08-17T11:50:09.332Z,46.46
2022-08-17T11:52:55.830Z,46.38
2022-08-17T11:55:44.941Z,45.87
2022-08-17T11:58:30.935Z,45.41
2022-08-17T12:01:23.412Z,45.11
2022-08-17T12:04:29.480Z,44.81
2022-08-17T12:07:23.245Z,45.05
2022-08-17T12:10:12.354Z,44.91
2022-08-17T12:13:01.652Z,44.55
2022-08-17T12:15:50.025Z,43.85
2022-08-17T12:18:40.355Z,43.62
2022-08-17T12:21:29.881Z,43.13
2022-08-17T12:24:21.483Z,43.17
2022-08-17T12:27:10.461Z,42.66
2022-08-17T12:30:00.955Z,42.93
2022-08-17T12:32:48.838Z,43.08
2022-08-17T12:35:38.830Z,43.04
2022-08-17T12:38:32.546Z,43.27
2022-08-17T12:41:38.902Z,42.87
2022-08-17T12:44:56.417Z,42.89
2022-08-17T12:48:22.696Z,43.40
2022-08-17T12:51:09.829Z,43.41
2022-08-17T12:53:56.012Z,43.14
2022-08-17T12:56:46.096Z,42.86
2022-08-17T12:59:34.001Z,42.96
2022-08-17T13:02:37.487Z,42.91
2022-08-17T13:05:27.937Z,42.50
2022-08-17T13:08:16.803Z,42.18
2022-08-17T13:11:06.338Z,42.41
2022-08-17T13:13:55.251Z,41.67
2022-08-17T13:16:49.450Z,41.41
2022-08-17T13:19:48.861Z,41.56
2022-08-17T13:22:34.981Z,41.90
2022-08-17T13:25:21.235Z,41.64
2022-08-17T13:28:18.233Z,41.83
2022-08-17T13:31:26.387Z,41.82
2022-08-17T13:34:26.938Z,41.56
2022-08-17T13:37:30.816Z,41.18
2022-08-17T13:40:19.697Z,41.17
2022-08-17T13:43:05.704Z,40.85
2022-08-17T13:45:52.780Z,40.71
2022-08-17T13:48:39.337Z,40.34
2022-08-17T13:51:30.612Z,39.98
2022-08-17T13:55:38.383Z,38.88
2022-08-17T13:59:53.346Z,38.76
2022-08-17T14:02:41.170Z,38.05
2022-08-17T14:05:27.761Z,37.04
2022-08-17T14:08:20.286Z,36.50
2022-08-17T14:11:11.456Z,36.04
2022-08-17T14:13:58.781Z,35.02
2022-08-17T14:16:44.918Z,34.52
2022-08-17T14:19:31.300Z,33.24
2022-08-17T14:22:49.645Z,33.07
2022-08-17T14:25:35.712Z,32.47
2022-08-17T14:28:21.770Z,31.74
2022-08-17T14:31:08.487Z,31.33
2022-08-17T14:33:54.135Z,31.22
2022-08-17T14:36:48.199Z,30.21
2022-08-17T14:39:38.385Z,29.80
2022-08-17T14:42:28.133Z,29.10
2022-08-17T14:45:30.269Z,28.29
2022-08-17T14:48:20.333Z,28.10
2022-08-17T14:51:06.983Z,26.83
2022-08-17T14:53:53.268Z,26.90
2022-08-17T14:56:39.319Z,26.04
2022-08-17T14:59:25.478Z,25.33
2022-08-17T15:02:11.745Z,25.13
2022-08-17T15:05:07.359Z,24.44
2022-08-17T15:07:53.822Z,24.26
2022-08-17T15:10:39.737Z,24.35
2022-08-17T15:13:27.350Z,23.71
2022-08-17T15:16:13.903Z,23.90
2022-08-17T15:18:59.939Z,23.48
2022-08-17T15:21:47.071Z,23.43
2022-08-17T15:24:33.826Z,23.00
2022-08-17T15:27:28.275Z,23.20
2022-08-17T15:30:20.180Z,23.05
2022-08-17T15:33:06.239Z,22.94
2022-08-17T15:35:53.617Z,22.70
2022-08-17T15:38:39.793Z,22.72
2022-08-17T15:41:28.130Z,22.66
2022-08-17T15:44:14.067Z,22.85
2022-08-17T15:46:59.765Z,23.03
2022-08-17T15:49:46.524Z,22.90
2022-08-17T15:52:38.038Z,23.07
2022-08-17T15:55:26.911Z,23.52
2022-08-17T15:58:12.914Z,24.00
2022-08-17T16:01:15.136Z,24.50
2022-08-17T16:04:26.754Z,24.79
2022-08-17T16:07:26.833Z,25.25
2022-08-17T16:10:18.193Z,25.87
2022-08-17T16:13:05.151Z,26.16
2022-08-17T16:16:03.786Z,26.64
2022-08-17T16:18:54.689Z,26.99
2022-08-17T16:21:48.696Z,27.66
2022-08-17T16:24:37.643Z,27.83
2022-08-17T16:27:23.371Z,28.11
2022-08-17T16:30:16.457Z,28.68
2022-08-17T16:33:03.632Z,28.95
2022-08-17T16:35:49.892Z,29.12
2022-08-17T16:38:36.441Z,29.49
2022-08-17T16:41:41.568Z,30.01
2022-08-17T16:44:31.812Z,30.21
2022-08-17T16:47:19.473Z,30.82
2022-08-17T16:50:07.313Z,30.96
2022-08-17T16:52:53.439Z,31.07
2022-08-17T16:55:39.515Z,31.42
2022-08-17T16:58:25.636Z,31.59
2022-08-17T17:01:12.859Z,31.83
2022-08-17T17:04:04.389Z,31.81
2022-08-17T17:07:05.094Z,31.97
2022-08-17T17:09:55.401Z,32.25
2022-08-17T17:13:02.971Z,32.30
2022-08-17T17:16:05.197Z,33.06
2022-08-17T17:19:34.297Z,33.42
2022-08-17T17:22:29.668Z,33.07
2022-08-17T18:11:25.567Z,38.96
2022-08-17T18:14:46.825Z,39.24
2022-08-17T18:17:34.171Z,38.55
2022-08-17T18:20:21.245Z,38.47
2022-08-17T18:23:31.597Z,38.39
2022-08-17T18:27:08.607Z,39.00
2022-08-17T18:29:58.256Z,38.45
2022-08-17T18:32:46.743Z,38.82
2022-08-17T18:35:35.069Z,38.82
2022-08-17T18:38:31.053Z,38.86
2022-08-17T18:41:30.612Z,39.21
2022-08-17T18:44:25.363Z,39.27
2022-08-17T18:47:22.345Z,39.40
2022-08-17T18:50:29.096Z,39.83
2022-08-17T18:53:37.741Z,39.66
2022-08-17T18:56:26.928Z,39.66
2022-08-17T18:59:21.914Z,39.62
2022-08-17T19:02:40.380Z,40.34
2022-08-17T19:05:31.687Z,40.15
2022-08-17T19:08:24.107Z,39.93
2022-08-17T19:11:12.652Z,39.94
2022-08-17T19:14:06.986Z,40.52
2022-08-17T19:17:00.176Z,40.34
2022-08-17T19:20:15.089Z,41.16
2022-08-17T19:23:16.873Z,40.83
2022-08-17T19:26:06.379Z,40.76
2022-08-17T19:29:20.018Z,40.81
2022-08-17T19:32:10.552Z,40.83
2022-08-17T19:34:57.233Z,41.12
2022-08-17T19:38:04.161Z,41.18
2022-08-17T19:41:07.569Z,41.29
2022-08-17T19:44:36.857Z,42.21
2022-08-17T19:47:53.375Z,41.39
2022-08-17T19:50:47.383Z,41.64
2022-08-17T19:54:05.350Z,42.69
2022-08-17T19:57:02.898Z,42.16
2022-08-17T20:00:02.691Z,42.01
2022-08-17T20:03:16.947Z,41.99
2022-08-17T20:06:14.783Z,42.27
2022-08-17T20:09:15.060Z,42.33
2022-08-17T20:12:07.765Z,42.44
2022-08-17T20:14:57.396Z,42.74
2022-08-17T20:17:45.516Z,42.79
2022-08-17T20:20:46.851Z,43.01
2022-08-17T20:24:05.865Z,42.90
2022-08-17T20:27:12.575Z,42.93
2022-08-17T20:30:12.941Z,43.54
2022-08-17T20:33:01.389Z,42.96
2022-08-17T20:36:21.080Z,44.00
2022-08-17T20:39:31.285Z,43.79
2022-08-17T20:42:20.912Z,43.11
2022-08-17T20:45:24.541Z,43.81
2022-08-17T20:48:36.316Z,44.36
2022-08-17T20:51:23.939Z,43.68
2022-08-17T20:54:19.074Z,43.84
2022-08-17T20:57:13.804Z,43.76
2022-08-17T21:00:18.333Z,44.00
2022-08-17T21:03:50.695Z,44.41
2022-08-17T21:07:17.585Z,44.18
2022-08-17T21:10:09.755Z,44.10
2022-08-17T21:13:08.232Z,44.02
2022-08-17T21:15:57.440Z,44.18
2022-08-17T21:19:19.750Z,44.81
2022-08-17T21:22:21.516Z,44.54
2022-08-17T21:25:48.374Z,45.08
2022-08-17T21:29:00.861Z,44.74
2022-08-17T21:32:06.534Z,44.69
2022-08-17T21:35:24.166Z,44.82
2022-08-17T21:38:13.796Z,44.70
2022-08-17T21:41:01.465Z,44.83
2022-08-17T21:43:50.363Z,44.97
2022-08-17T21:46:40.538Z,44.96
2022-08-17T21:49:28.095Z,44.96
2022-08-17T21:52:17.739Z,45.23
2022-08-17T21:55:13.065Z,45.15
2022-08-17T21:58:13.676Z,45.24
2022-08-17T22:01:35.697Z,45.76
2022-08-17T22:04:37.906Z,45.60
2022-08-17T22:07:53.341Z,46.04
2022-08-17T22:10:44.703Z,45.43
2022-08-17T22:13:32.765Z,45.39
2022-08-17T22:16:29.400Z,45.65
2022-08-17T22:19:17.906Z,45.48
2022-08-17T22:22:10.504Z,45.51
2022-08-17T22:25:00.133Z,45.58
2022-08-17T22:28:04.504Z,45.67
2022-08-17T22:31:00.765Z,46.08
2022-08-17T22:33:49.101Z,45.78
2022-08-17T22:36:37.604Z,45.81
2022-08-17T22:39:23.491Z,45.98
2022-08-17T22:42:14.273Z,46.02
2022-08-17T22:45:00.415Z,46.10
2022-08-17T22:47:49.386Z,46.12
2022-08-17T22:50:35.410Z,45.65
2022-08-17T22:53:42.322Z,46.08
2022-08-17T22:56:49.101Z,45.98
2022-08-17T22:59:55.678Z,46.54
2022-08-17T23:03:18.460Z,46.41
2022-08-17T23:06:08.898Z,46.32
2022-08-17T23:08:56.342Z,46.33
2022-08-17T23:11:49.863Z,46.62
2022-08-17T23:14:42.482Z,46.39
2022-08-17T23:17:35.105Z,46.37
2022-08-17T23:20:23.706Z,46.50
2022-08-17T23:23:14.315Z,46.53
2022-08-17T23:26:01.049Z,46.70
2022-08-17T23:28:47.413Z,46.72
2022-08-17T23:31:37.142Z,46.91
2022-08-17T23:34:24.273Z,46.92
2022-08-17T23:37:11.809Z,47.05
2022-08-17T23:39:57.627Z,46.95
2022-08-17T23:42:46.179Z,47.18
2022-08-17T23:45:33.306Z,47.15
2022-08-17T23:48:28.619Z,47.02
2022-08-17T23:51:29.352Z,47.29
2022-08-17T23:54:31.489Z,47.22
2022-08-17T23:57:20.533Z,47.29
